createdAt,value
2023-04-22T00:01:35.935Z,73.20
2023-04-22T00:04:03.099Z,73.10
2023-04-22T00:06:31.452Z,73.46
2023-04-22T00:08:58.700Z,73.51
2023-04-22T00:11:25.773Z,73.59
2023-04-22T00:13:52.619Z,73.48
2023-04-22T00:16:19.739Z,73.35
2023-04-22T00:18:46.665Z,73.75
2023-04-22T00:21:13.347Z,73.54
2023-04-22T00:23:40.663Z,73.64
2023-04-22T00:26:07.371Z,73.64
2023-04-22T00:28:36.494Z,73.61
2023-04-22T00:31:04.174Z,73.57
2023-04-22T00:33:31.322Z,73.32
2023-04-22T00:35:58.055Z,73.41
2023-04-22T00:38:24.880Z,73.46
2023-04-22T00:40:52.932Z,73.26
2023-04-22T00:43:19.591Z,72.99
2023-04-22T00:45:46.854Z,72.41
2023-04-22T00:48:13.624Z,72.10
2023-04-22T00:50:40.517Z,71.88
2023-04-22T00:53:07.244Z,71.64
2023-04-22T00:55:34.340Z,71.24
2023-04-22T00:58:01.298Z,70.96
2023-04-22T01:00:28.224Z,70.54
2023-04-22T01:02:55.672Z,70.43
2023-04-22T01:05:25.841Z,69.90
2023-04-22T01:07:53.069Z,69.61
2023-04-22T01:10:20.342Z,69.35
2023-04-22T01:12:47.221Z,68.80
2023-04-22T01:15:13.973Z,68.52
2023-04-22T01:17:40.866Z,68.00
2023-04-22T01:20:09.896Z,67.93
2023-04-22T01:22:42.350Z,67.65
2023-04-22T01:25:09.583Z,67.42
2023-04-22T01:27:36.756Z,67.06
2023-04-22T01:30:04.729Z,66.66
2023-04-22T01:32:32.611Z,66.43
2023-04-22T01:34:59.349Z,66.31
2023-04-22T01:37:26.381Z,66.04
2023-04-22T01:39:53.109Z,65.84
2023-04-22T01:42:20.965Z,65.26
2023-04-22T01:44:48.744Z,65.21
2023-04-22T01:47:15.442Z,65.03
2023-04-22T01:49:42.507Z,64.67
2023-04-22T01:52:09.260Z,64.17
2023-04-22T01:54:36.456Z,64.00
2023-04-22T01:57:08.066Z,63.84
2023-04-22T01:59:34.864Z,63.53
2023-04-22T02:02:01.628Z,63.45
2023-04-22T02:04:28.654Z,63.60
2023-04-22T02:06:55.470Z,63.56
2023-04-22T02:09:22.205Z,63.63
2023-04-22T02:11:49.963Z,63.58
2023-04-22T02:14:16.957Z,63.03
2023-04-22T02:16:43.688Z,63.00
2023-04-22T02:19:10.769Z,62.55
2023-04-22T02:21:37.553Z,62.34
2023-04-22T02:24:04.584Z,61.90
2023-04-22T02:26:31.324Z,61.67
2023-04-22T02:28:58.152Z,61.58
2023-04-22T02:31:25.607Z,61.47
2023-04-22T02:33:53.196Z,61.59
2023-04-22T02:36:20.017Z,61.37
2023-04-22T02:38:48.515Z,61.20
2023-04-22T02:41:15.292Z,61.02
2023-04-22T02:43:45.472Z,61.38
2023-04-22T02:46:13.201Z,61.26
2023-04-22T02:48:40.413Z,60.95
2023-04-22T02:51:08.416Z,61.22
2023-04-22T02:53:35.679Z,61.18
2023-04-22T02:56:02.424Z,61.18
2023-04-22T02:58:29.762Z,60.87
2023-04-22T03:00:57.346Z,61.13
2023-04-22T03:03:24.237Z,60.94
2023-04-22T03:05:51.279Z,60.76
2023-04-22T03:08:19.757Z,60.96
2023-04-22T03:10:47.396Z,60.87
2023-04-22T03:13:14.390Z,60.90
2023-04-22T03:15:41.577Z,60.91
2023-04-22T03:18:10.537Z,60.55
2023-04-22T03:20:37.816Z,60.62
2023-04-22T03:23:09.009Z,60.57
2023-04-22T03:25:36.382Z,60.51
2023-04-22T03:28:03.692Z,60.36
2023-04-22T03:30:30.713Z,60.40
2023-04-22T03:32:57.819Z,60.45
2023-04-22T03:35:35.413Z,60.19
2023-04-22T03:38:02.182Z,60.37
2023-04-22T03:40:32.255Z,60.23
2023-04-22T03:42:59.619Z,60.21
2023-04-22T03:45:26.694Z,59.77
2023-04-22T03:48:09.064Z,59.65
2023-04-22T03:50:39.376Z,59.56
2023-04-22T03:53:06.092Z,59.09
2023-04-22T03:55:33.386Z,59.09
2023-04-22T03:58:00.744Z,59.16
2023-04-22T04:00:27.642Z,58.63
2023-04-22T04:03:03.176Z,58.76
2023-04-22T04:05:31.220Z,58.52
2023-04-22T04:07:58.006Z,58.15
2023-04-22T04:10:26.411Z,58.24
2023-04-22T04:12:54.570Z,58.05
2023-04-22T04:15:21.601Z,57.87
2023-04-22T04:17:48.486Z,57.81
2023-04-22T04:20:15.952Z,57.82
2023-04-22T04:22:42.982Z,57.24
2023-04-22T04:25:10.002Z,56.70
2023-04-22T04:27:41.048Z,56.32
2023-04-22T04:30:09.242Z,56.13
2023-04-22T04:32:42.413Z,56.05
2023-04-22T04:35:13.539Z,55.86
2023-04-22T04:37:42.680Z,55.67
2023-04-22T04:40:11.652Z,55.35
2023-04-22T04:42:43.663Z,54.87
2023-04-22T04:45:17.039Z,54.55
2023-04-22T04:47:44.615Z,54.07
2023-04-22T04:50:19.617Z,53.74
2023-04-22T04:52:48.219Z,53.33
2023-04-22T04:55:16.976Z,52.78
2023-04-22T04:57:46.193Z,52.02
2023-04-22T05:00:15.812Z,51.50
2023-04-22T05:02:43.860Z,50.52
2023-04-22T05:05:11.624Z,50.10
2023-04-22T05:07:46.327Z,49.61
2023-04-22T05:10:15.621Z,48.77
2023-04-22T05:12:45.572Z,47.12
2023-04-22T05:15:16.523Z,45.86
2023-04-22T05:17:43.787Z,44.23
2023-04-22T05:20:11.604Z,42.78
2023-04-22T05:22:43.976Z,42.11
2023-04-22T05:25:11.246Z,41.86
2023-04-22T05:27:40.952Z,42.48
2023-04-22T05:30:08.589Z,43.25
2023-04-22T05:32:36.442Z,43.91
2023-04-22T05:35:05.406Z,44.23
2023-04-22T05:37:32.867Z,44.72
2023-04-22T05:40:00.376Z,45.17
2023-04-22T05:42:27.791Z,45.50
2023-04-22T05:44:56.005Z,45.80
2023-04-22T05:47:23.069Z,46.09
2023-04-22T05:49:50.304Z,46.54
2023-04-22T05:52:30.866Z,46.58
2023-04-22T05:55:20.453Z,46.86
2023-04-22T05:57:52.875Z,47.35
2023-04-22T06:03:22.711Z,47.71
2023-04-22T06:05:50.147Z,47.92
2023-04-22T06:08:18.996Z,47.84
2023-04-22T06:10:47.157Z,47.77
2023-04-22T06:13:13.932Z,47.60
2023-04-22T06:15:41.279Z,47.69
2023-04-22T06:18:08.115Z,47.83
2023-04-22T06:20:35.745Z,47.66
2023-04-22T06:23:04.758Z,47.30
2023-04-22T06:25:32.241Z,47.34
2023-04-22T06:27:59.275Z,47.64
2023-04-22T06:30:27.023Z,47.29
2023-04-22T06:32:55.602Z,47.26
2023-04-22T06:35:22.740Z,47.00
2023-04-22T06:37:49.722Z,47.48
2023-04-22T06:40:17.167Z,47.38
2023-04-22T06:42:53.678Z,47.38
2023-04-22T06:45:44.490Z,46.89
2023-04-22T06:48:31.591Z,45.77
2023-04-22T06:51:18.446Z,45.10
2023-04-22T06:53:45.906Z,44.50
2023-04-22T06:56:15.162Z,44.73
2023-04-22T06:58:42.040Z,44.77
2023-04-22T07:01:08.946Z,44.68
2023-04-22T07:03:36.573Z,44.55
2023-04-22T07:06:07.798Z,44.61
2023-04-22T07:08:34.889Z,45.15
2023-04-22T07:11:04.285Z,45.77
2023-04-22T07:13:36.565Z,46.26
2023-04-22T07:16:03.503Z,46.50
2023-04-22T07:18:30.730Z,46.84
2023-04-22T07:21:05.232Z,46.83
2023-04-22T07:23:32.794Z,46.54
2023-04-22T07:26:01.294Z,46.15
2023-04-22T07:28:28.379Z,46.25
2023-04-22T07:30:56.861Z,46.42
2023-04-22T07:33:24.425Z,46.25
2023-04-22T07:35:51.118Z,45.92
2023-04-22T07:38:17.805Z,45.64
2023-04-22T07:40:45.130Z,45.04
2023-04-22T07:43:13.738Z,44.60
2023-04-22T07:45:42.904Z,43.99
2023-04-22T07:48:11.224Z,42.81
2023-04-22T07:50:41.906Z,42.42
2023-04-22T07:53:10.384Z,40.92
2023-04-22T07:55:37.444Z,40.81
2023-04-22T07:58:05.905Z,40.31
2023-04-22T08:00:34.483Z,40.42
2023-04-22T08:03:02.412Z,40.65
2023-04-22T08:05:29.439Z,39.90
2023-04-22T08:07:56.316Z,39.63
2023-04-22T08:10:25.761Z,39.13
2023-04-22T08:12:53.169Z,39.28
2023-04-22T08:15:20.269Z,39.05
2023-04-22T08:17:50.308Z,38.46
2023-04-22T08:20:18.051Z,38.28
2023-04-22T08:22:45.098Z,38.28
2023-04-22T08:25:12.179Z,38.14
2023-04-22T08:27:39.289Z,37.28
2023-04-22T08:30:06.749Z,37.23
2023-04-22T08:32:33.851Z,36.89
2023-04-22T08:35:05.450Z,36.67
2023-04-22T08:37:34.659Z,35.70
2023-04-22T08:40:04.778Z,34.33
2023-04-22T08:42:32.650Z,33.57
2023-04-22T08:45:01.022Z,32.69
2023-04-22T08:47:27.994Z,32.53
2023-04-22T08:49:55.186Z,31.73
2023-04-22T08:52:22.338Z,30.28
2023-04-22T08:54:50.734Z,29.83
2023-04-22T08:57:18.029Z,29.08
2023-04-22T08:59:44.905Z,28.50
2023-04-22T09:02:15.180Z,28.46
2023-04-22T09:04:42.794Z,27.82
2023-04-22T09:07:10.430Z,27.23
2023-04-22T09:09:37.370Z,27.20
2023-04-22T09:12:07.174Z,27.53
2023-04-22T09:14:34.240Z,27.34
2023-04-22T09:17:02.540Z,27.21
2023-04-22T09:19:29.930Z,27.08
2023-04-22T09:21:59.885Z,25.33
2023-04-22T09:24:26.786Z,23.98
2023-04-22T09:26:55.027Z,23.67
2023-04-22T09:29:23.837Z,23.61
2023-04-22T09:31:51.499Z,23.53
2023-04-22T09:34:26.692Z,22.49
2023-04-22T09:36:54.997Z,22.39
2023-04-22T09:39:21.884Z,22.79
2023-04-22T09:41:48.590Z,22.36
2023-04-22T09:44:17.596Z,22.34
2023-04-22T09:46:47.218Z,22.69
2023-04-22T09:49:16.087Z,22.92
2023-04-22T09:51:49.895Z,21.58
2023-04-22T09:54:23.048Z,21.24
2023-04-22T09:56:54.623Z,20.89
2023-04-22T09:59:30.064Z,20.68
2023-04-22T10:02:03.998Z,20.87
2023-04-22T10:04:32.063Z,20.63
2023-04-22T10:07:02.098Z,20.94
2023-04-22T10:09:29.307Z,20.67
2023-04-22T10:11:58.542Z,20.34
2023-04-22T10:14:25.638Z,19.71
2023-04-22T10:16:56.196Z,18.61
2023-04-22T10:19:25.279Z,18.34
2023-04-22T10:21:54.277Z,18.27
2023-04-22T10:24:22.510Z,17.66
2023-04-22T10:26:57.069Z,17.59
2023-04-22T10:29:26.685Z,17.90
2023-04-22T10:32:23.619Z,17.48
2023-04-22T10:35:05.987Z,17.50
2023-04-22T10:37:33.718Z,17.45
2023-04-22T10:40:07.278Z,16.95
2023-04-22T10:42:36.625Z,17.18
2023-04-22T10:45:05.784Z,17.29
2023-04-22T10:47:34.920Z,17.76
2023-04-22T10:50:23.210Z,18.21
2023-04-22T10:52:55.772Z,18.19
2023-04-22T10:55:22.850Z,18.14
2023-04-22T10:57:50.448Z,18.12
2023-04-22T11:00:53.346Z,18.08
2023-04-22T11:03:28.859Z,17.93
2023-04-22T11:06:18.297Z,17.97
2023-04-22T11:08:49.464Z,17.97
2023-04-22T11:11:16.602Z,17.93
2023-04-22T11:13:46.980Z,17.91
2023-04-22T11:16:14.721Z,18.61
2023-04-22T11:18:41.619Z,19.42
2023-04-22T11:21:09.078Z,19.95
2023-04-22T11:23:36.281Z,19.86
2023-04-22T11:26:05.973Z,20.17
2023-04-22T11:28:34.154Z,20.39
2023-04-22T11:31:10.335Z,20.66
2023-04-22T11:33:39.084Z,20.21
2023-04-22T11:36:15.154Z,19.55
2023-04-22T11:38:42.123Z,19.15
2023-04-22T11:41:08.890Z,18.71
2023-04-22T11:43:46.193Z,18.88
2023-04-22T11:46:13.565Z,19.52
2023-04-22T11:48:41.724Z,19.80
2023-04-22T11:51:10.931Z,20.27
2023-04-22T11:53:39.559Z,20.41
2023-04-22T11:56:06.434Z,20.70
2023-04-22T11:58:33.705Z,20.69
2023-04-22T12:01:00.551Z,20.85
2023-04-22T12:03:30.581Z,21.06
2023-04-22T12:06:03.971Z,20.89
2023-04-22T12:08:33.404Z,19.93
2023-04-22T12:11:03.346Z,19.62
2023-04-22T12:13:40.898Z,19.41
2023-04-22T12:16:14.062Z,19.42
2023-04-22T12:18:48.496Z,19.81
2023-04-22T12:21:18.009Z,20.04
2023-04-22T12:23:53.302Z,19.82
2023-04-22T12:26:23.126Z,19.30
2023-04-22T12:28:53.603Z,18.81
2023-04-22T12:31:21.148Z,18.29
2023-04-22T12:33:48.046Z,17.96
2023-04-22T12:36:15.137Z,17.99
2023-04-22T12:38:41.878Z,17.53
2023-04-22T12:41:08.771Z,17.55
2023-04-22T12:43:36.182Z,17.55
2023-04-22T12:46:03.872Z,17.23
2023-04-22T12:48:31.057Z,17.00
2023-04-22T12:50:58.034Z,16.79
2023-04-22T12:53:26.619Z,16.42
2023-04-22T12:55:53.459Z,16.55
2023-04-22T12:58:21.644Z,16.61
2023-04-22T13:00:48.422Z,16.51
2023-04-22T13:03:15.487Z,16.44
2023-04-22T13:05:44.703Z,16.34
2023-04-22T13:08:11.368Z,16.47
2023-04-22T13:10:38.103Z,16.36
2023-04-22T13:13:17.561Z,16.77
2023-04-22T13:15:52.556Z,16.71
2023-04-22T13:18:19.660Z,16.77
2023-04-22T13:20:47.048Z,16.99
2023-04-22T13:23:14.238Z,17.29
2023-04-22T13:25:40.960Z,17.40
2023-04-22T13:28:07.856Z,17.64
2023-04-22T13:30:35.739Z,17.77
2023-04-22T13:33:03.033Z,17.77
2023-04-22T13:35:31.482Z,17.78
2023-04-22T13:37:58.399Z,17.59
2023-04-22T13:40:27.701Z,17.49
2023-04-22T13:42:54.830Z,17.41
2023-04-22T13:45:21.722Z,17.22
2023-04-22T13:47:48.677Z,17.41
2023-04-22T13:50:15.893Z,17.79
2023-04-22T13:52:44.537Z,17.85
2023-04-22T13:55:11.449Z,18.29
2023-04-22T13:57:38.435Z,18.57
2023-04-22T14:00:06.165Z,19.06
2023-04-22T14:02:42.116Z,19.38
2023-04-22T14:05:10.097Z,19.55
2023-04-22T14:07:39.359Z,19.84
2023-04-22T14:10:08.294Z,19.91
2023-04-22T14:12:36.731Z,20.18
2023-04-22T14:15:04.130Z,20.14
2023-04-22T14:17:32.516Z,20.16
2023-04-22T14:19:59.659Z,20.56
2023-04-22T14:22:26.483Z,20.67
2023-04-22T14:24:55.663Z,20.53
2023-04-22T14:27:22.544Z,20.67
2023-04-22T14:29:51.922Z,20.86
2023-04-22T14:32:19.516Z,21.21
2023-04-22T14:34:47.837Z,21.45
2023-04-22T14:37:14.828Z,21.63
2023-04-22T14:39:42.240Z,21.69
2023-04-22T14:42:10.424Z,21.79
2023-04-22T14:44:37.257Z,21.78
2023-04-22T14:47:07.390Z,22.01
2023-04-22T14:49:37.654Z,22.16
2023-04-22T14:52:07.076Z,22.24
2023-04-22T14:54:34.148Z,22.46
2023-04-22T14:57:02.358Z,22.55
2023-04-22T14:59:30.797Z,22.28
2023-04-22T15:02:00.239Z,22.42
2023-04-22T15:04:28.335Z,22.45
2023-04-22T15:06:56.950Z,22.34
2023-04-22T15:09:28.722Z,22.27
2023-04-22T15:11:59.768Z,22.34
2023-04-22T15:14:26.490Z,22.64
2023-04-22T15:16:55.440Z,22.72
2023-04-22T15:19:22.473Z,22.60
2023-04-22T15:21:49.371Z,22.71
2023-04-22T15:24:20.191Z,22.79
2023-04-22T15:26:48.171Z,22.59
2023-04-22T15:29:15.009Z,22.81
2023-04-22T15:31:41.741Z,22.75
2023-04-22T15:34:11.368Z,22.70
2023-04-22T15:36:38.261Z,22.64
2023-04-22T15:39:10.192Z,22.85
2023-04-22T15:41:37.574Z,23.15
2023-04-22T15:44:05.908Z,23.29
2023-04-22T15:46:34.399Z,23.51
2023-04-22T15:49:07.681Z,23.51
2023-04-22T15:51:34.561Z,23.60
2023-04-22T15:54:03.250Z,23.98
2023-04-22T15:56:32.423Z,24.37
2023-04-22T15:58:59.454Z,24.67
2023-04-22T16:01:27.553Z,24.89
2023-04-22T16:03:54.689Z,25.29
2023-04-22T16:06:25.394Z,25.47
2023-04-22T16:08:52.462Z,25.55
2023-04-22T16:11:19.334Z,25.82
2023-04-22T16:13:47.572Z,25.78
2023-04-22T16:16:15.053Z,25.95
2023-04-22T16:18:44.393Z,25.95
2023-04-22T16:21:11.366Z,26.14
2023-04-22T16:23:38.382Z,26.12
2023-04-22T16:26:06.807Z,26.24
2023-04-22T16:28:35.890Z,26.29
2023-04-22T16:31:03.925Z,26.43
2023-04-22T16:33:32.269Z,26.62
2023-04-22T16:35:59.226Z,26.77
2023-04-22T16:38:26.774Z,26.98
2023-04-22T16:40:53.599Z,27.03
2023-04-22T16:43:20.728Z,27.21
2023-04-22T16:45:49.221Z,27.38
2023-04-22T16:48:18.203Z,27.39
2023-04-22T16:50:44.960Z,27.53
2023-04-22T16:53:13.133Z,27.72
2023-04-22T16:55:40.936Z,27.73
2023-04-22T16:58:07.725Z,27.94
2023-04-22T17:00:34.667Z,28.25
2023-04-22T17:03:05.994Z,28.42
2023-04-22T17:05:34.076Z,28.66
2023-04-22T17:08:01.041Z,28.78
2023-04-22T17:10:29.505Z,29.00
2023-04-22T17:12:56.871Z,29.14
2023-04-22T17:15:24.154Z,29.19
2023-04-22T17:17:51.338Z,29.36
2023-04-22T17:20:19.456Z,29.50
2023-04-22T17:22:46.290Z,29.68
2023-04-22T17:25:13.980Z,29.85
2023-04-22T17:27:41.037Z,29.96
2023-04-22T17:30:08.345Z,30.13
2023-04-22T17:32:37.356Z,30.34
2023-04-22T17:35:04.388Z,30.48
2023-04-22T17:37:31.252Z,30.65
2023-04-22T17:39:58.038Z,30.71
2023-04-22T17:42:32.218Z,30.84
2023-04-22T17:45:06.696Z,30.90
2023-04-22T17:47:35.048Z,31.11
2023-04-22T17:50:01.965Z,31.29
2023-04-22T17:52:29.009Z,31.35
2023-04-22T17:54:59.918Z,31.48
2023-04-22T17:57:29.100Z,31.56
2023-04-22T17:59:57.278Z,31.77
2023-04-22T18:02:25.903Z,31.68
2023-04-22T18:04:54.530Z,31.75
2023-04-22T18:07:23.102Z,31.78
2023-04-22T18:09:51.402Z,31.76
2023-04-22T18:12:24.546Z,31.86
2023-04-22T18:14:52.459Z,31.89
2023-04-22T18:17:19.557Z,31.72
2023-04-22T18:19:50.421Z,31.73
2023-04-22T18:22:17.870Z,31.80
2023-04-22T18:24:47.321Z,31.82
2023-04-22T18:27:14.067Z,32.03
2023-04-22T18:29:41.309Z,32.13
2023-04-22T18:32:08.369Z,32.23
2023-04-22T18:34:36.583Z,32.17
2023-04-22T18:37:03.786Z,32.16
2023-04-22T18:39:30.595Z,32.10
2023-04-22T18:41:58.768Z,32.14
2023-04-22T18:44:26.587Z,32.23
2023-04-22T18:46:56.213Z,32.28
2023-04-22T18:49:23.024Z,32.36
2023-04-22T18:51:50.298Z,32.40
2023-04-22T18:54:18.758Z,32.93
2023-04-22T18:56:46.138Z,33.30
2023-04-22T18:59:13.620Z,33.57
2023-04-22T19:01:40.531Z,33.41
2023-04-22T19:04:07.538Z,33.17
2023-04-22T19:06:35.601Z,33.53
2023-04-22T19:09:05.036Z,33.71
2023-04-22T19:11:32.039Z,33.72
2023-04-22T19:14:02.395Z,33.63
2023-04-22T19:16:34.432Z,33.75
2023-04-22T19:19:01.156Z,33.99
2023-04-22T19:21:29.314Z,34.11
2023-04-22T19:23:56.147Z,34.42
2023-04-22T19:26:23.063Z,34.33
2023-04-22T19:28:50.083Z,34.54
2023-04-22T19:31:17.256Z,34.65
2023-04-22T19:33:44.091Z,34.81
2023-04-22T19:36:10.808Z,34.90
2023-04-22T19:38:37.700Z,34.95
2023-04-22T19:41:04.460Z,34.77
2023-04-22T19:43:32.336Z,34.71
2023-04-22T19:45:59.187Z,34.67
2023-04-22T19:48:26.554Z,34.63
2023-04-22T19:50:53.397Z,34.98
2023-04-22T19:53:20.257Z,34.89
2023-04-22T19:55:47.229Z,34.89
2023-04-22T19:58:15.028Z,35.25
2023-04-22T20:00:42.311Z,35.60
2023-04-22T20:03:09.740Z,35.36
2023-04-22T20:05:37.204Z,35.50
2023-04-22T20:08:04.388Z,35.60
2023-04-22T20:10:32.444Z,35.48
2023-04-22T20:12:59.426Z,35.71
2023-04-22T20:15:27.351Z,36.13
2023-04-22T20:17:55.429Z,35.94
2023-04-22T20:20:23.298Z,36.10
2023-04-22T20:22:50.942Z,36.41
2023-04-22T20:25:18.307Z,36.42
2023-04-22T20:27:45.456Z,36.44
2023-04-22T20:30:13.776Z,36.72
2023-04-22T20:32:42.100Z,37.08
2023-04-22T20:35:15.900Z,37.04
2023-04-22T20:37:45.543Z,36.96
2023-04-22T20:40:14.297Z,37.15
2023-04-22T20:42:41.868Z,37.22
2023-04-22T20:45:14.405Z,37.53
2023-04-22T20:47:42.064Z,37.80
2023-04-22T20:50:09.484Z,37.83
2023-04-22T20:52:36.604Z,37.99
2023-04-22T20:55:06.146Z,38.35
2023-04-22T20:57:32.894Z,38.49
2023-04-22T20:59:59.618Z,38.83
2023-04-22T21:02:26.541Z,38.95
2023-04-22T21:04:54.975Z,39.06
2023-04-22T21:07:25.559Z,39.18
2023-04-22T21:09:52.587Z,39.29
2023-04-22T21:12:19.627Z,39.13
2023-04-22T21:14:47.104Z,39.02
2023-04-22T21:17:22.359Z,39.47
2023-04-22T21:19:50.022Z,39.79
2023-04-22T21:22:19.532Z,40.11
2023-04-22T21:24:50.072Z,39.96
2023-04-22T21:27:17.780Z,39.90
2023-04-22T21:29:45.912Z,40.51
2023-04-22T21:32:13.986Z,40.69
2023-04-22T21:34:41.266Z,41.07
2023-04-22T21:37:08.366Z,41.20
2023-04-22T21:39:36.697Z,41.48
2023-04-22T21:42:07.070Z,41.65
2023-04-22T21:44:35.543Z,41.77
2023-04-22T21:47:02.476Z,41.79
2023-04-22T21:49:29.598Z,41.85
2023-04-22T21:51:57.073Z,41.81
2023-04-22T21:54:24.185Z,42.04
2023-04-22T21:56:51.703Z,42.09
2023-04-22T21:59:18.736Z,42.13
2023-04-22T22:01:45.616Z,42.21
2023-04-22T22:04:15.453Z,42.41
2023-04-22T22:06:44.292Z,42.18
2023-04-22T22:09:11.823Z,42.26
2023-04-22T22:11:39.293Z,42.15
2023-04-22T22:14:06.366Z,42.04
2023-04-22T22:16:34.159Z,41.76
2023-04-22T22:19:03.844Z,42.18
2023-04-22T22:21:32.271Z,41.92
2023-04-22T22:23:59.445Z,42.04
2023-04-22T22:26:26.947Z,42.22
2023-04-22T22:28:53.936Z,42.41
2023-04-22T22:31:22.230Z,42.36
2023-04-22T22:33:49.793Z,42.38
2023-04-22T22:36:18.409Z,42.75
2023-04-22T22:38:45.808Z,42.70
2023-04-22T22:41:13.139Z,42.68
2023-04-22T22:43:40.081Z,42.54
2023-04-22T22:46:06.779Z,42.79
2023-04-22T22:48:34.081Z,42.79
2023-04-22T22:51:02.360Z,42.93
2023-04-22T22:53:32.366Z,42.82
2023-04-22T22:55:59.265Z,42.92
2023-04-22T22:58:26.304Z,42.88
2023-04-22T23:00:53.251Z,43.08
2023-04-22T23:03:22.917Z,42.96
2023-04-22T23:05:50.256Z,43.24
2023-04-22T23:08:19.374Z,43.35
2023-04-22T23:10:47.874Z,43.32
2023-04-22T23:13:14.903Z,43.07
2023-04-22T23:15:41.981Z,43.40
2023-04-22T23:18:10.030Z,43.25
2023-04-22T23:20:38.841Z,43.46
2023-04-22T23:23:05.770Z,43.68
2023-04-22T23:25:34.003Z,44.02
2023-04-22T23:28:01.498Z,44.36
2023-04-22T23:30:28.790Z,44.67
2023-04-22T23:32:57.423Z,45.16
2023-04-22T23:35:26.818Z,45.33
2023-04-22T23:37:54.283Z,45.81
2023-04-22T23:40:21.155Z,45.91
2023-04-22T23:42:48.656Z,45.83
2023-04-22T23:45:15.529Z,45.89
2023-04-22T23:47:42.840Z,46.10
2023-04-22T23:50:10.442Z,46.14
2023-04-22T23:52:40.435Z,46.14
2023-04-22T23:55:31.240Z,46.23
2023-04-22T23:57:58.145Z,46.32
